Data for 10/22/2007

Time Sea-Level Adjusted Pressure Absolute Pressure Temperature Relative Humidity Dew Point   
(mb) (inHg) (mb) (inHg) (C) (F) (%) (C) (F)
00:05 1029 30.39 859 25.37 1.5 34.7 58 -5.9 21.4
00:10 1030 30.42 859 25.37 1.8 35.2 56 -6.1 21.1
00:15 1029 30.39 859 25.37 2 35.6 55 -6.1 21.1
00:20 1030 30.42 859 25.37 2 35.6 55 -6.1 20.9
00:25 1029 30.39 859 25.37 2 35.6 56 -6 21.3
00:30 1029 30.39 859 25.37 1.9 35.3 56 -6 21.2
00:35 1029 30.39 859 25.37 1.8 35.2 56 -6.1 21
00:40 1029 30.39 859 25.37 1.9 35.4 55 -6.2 20.8
00:45 1029 30.39 859 25.37 2 35.7 55 -6.2 20.9
00:50 1029 30.39 858 25.34 2.1 35.9 54 -6.3 20.6
00:55 1029 30.39 858 25.34 2.2 36 54 -6.2 20.8
01:00 1029 30.39 858 25.34 2.1 35.8 54 -6.3 20.7
01:05 1029 30.39 858 25.34 2.1 35.8 55 -6.1 21.1
01:10 1029 30.39 858 25.34 2.1 35.8 54 -6.3 20.7
01:15 1029 30.39 858 25.34 2 35.6 54 -6.3 20.7
01:20 1029 30.39 858 25.34 1.9 35.4 55 -6.3 20.7
01:25 1029 30.39 858 25.34 1.8 35.3 54 -6.6 20.1
01:30 1029 30.39 858 25.34 1.9 35.4 53 -6.6 20.1
01:35 1029 30.39 858 25.34 1.9 35.4 54 -6.5 20.3
01:40 1029 30.39 858 25.34 1.9 35.3 54 -6.4 20.4
01:45 1029 30.39 858 25.34 1.8 35.2 56 -6.2 20.8
01:50 1029 30.39 858 25.34 1.7 35 55 -6.4 20.5
01:55 1029 30.39 858 25.34 1.7 35.1 55 -6.3 20.6
02:00 1029 30.39 858 25.34 1.7 35.1 55 -6.5 20.4
02:05 1029 30.39 858 25.34 1.8 35.2 54 -6.6 20.1
02:10 1029 30.39 858 25.34 1.9 35.3 54 -6.4 20.5
02:15 1029 30.39 858 25.34 1.8 35.2 55 -6.4 20.4
02:20 1029 30.39 858 25.34 1.7 35.1 55 -6.3 20.6
02:25 1029 30.39 858 25.34 1.7 35.1 54 -6.5 20.3
02:30 1029 30.39 858 25.34 1.8 35.2 55 -6.4 20.5
02:35 1029 30.39 858 25.34 1.8 35.3 54 -6.5 20.4
02:40 1029 30.39 858 25.34 1.9 35.4 54 -6.4 20.6
02:45 1029 30.39 858 25.34 1.9 35.4 54 -6.4 20.4
02:50 1029 30.39 858 25.34 1.6 34.9 55 -6.4 20.4
02:55 1029 30.39 858 25.34 1.5 34.6 56 -6.5 20.4
03:00 1029 30.39 858 25.34 1.6 34.8 56 -6.4 20.6
03:05 1029 30.39 858 25.34 1.8 35.3 54 -6.5 20.2
03:10 1029 30.39 859 25.37 1.9 35.5 54 -6.4 20.4
03:15 1029 30.39 859 25.37 2 35.6 54 -6.4 20.4
03:20 1029 30.39 859 25.37 2.1 35.7 53 -6.4 20.4
03:25 1029 30.39 859 25.37 2.1 35.8 54 -6.3 20.6
03:30 1030 30.42 859 25.37 2.2 36 54 -6.2 20.8
03:35 1030 30.42 859 25.37 2.2 36 55 -6 21.2
03:40 1030 30.42 859 25.37 2.2 36 55 -5.9 21.4
03:45 1030 30.42 859 25.37 2.2 36 55 -6 21.2
03:50 1030 30.42 859 25.37 2.3 36.1 54 -6.1 21
03:55 1030 30.42 859 25.37 2.3 36.2 54 -6 21.3
04:00 1030 30.42 859 25.37 2.2 36 55 -5.8 21.5
04:05 1030 30.42 859 25.37 2.3 36.1 55 -5.9 21.3
04:10 1029 30.39 859 25.37 2.3 36.1 54 -6.1 21.1
04:15 1029 30.39 859 25.37 2.1 35.9 56 -5.8 21.6
04:20 1029 30.39 859 25.37 2 35.5 56 -5.9 21.3
04:25 1029 30.39 859 25.37 1.8 35.3 57 -5.8 21.6
04:30 1029 30.39 859 25.37 1.7 35 58 -5.8 21.6
04:35 1029 30.39 859 25.37 1.6 34.9 62 -5 23
04:40 1029 30.39 859 25.37 1.3 34.4 62 -5.2 22.7
04:45 1029 30.39 858 25.34 1.3 34.4 60 -5.7 21.7
04:50 1029 30.39 858 25.34 1.4 34.5 61 -5.4 22.3
04:55 1029 30.39 858 25.34 1.5 34.7 59 -5.6 21.9
05:00 1029 30.39 858 25.34 1.6 34.9 57 -6 21.2
05:05 1029 30.39 858 25.34 1.7 35.1 57 -5.8 21.5
05:10 1029 30.39 858 25.34 1.8 35.2 59 -5.4 22.4
05:15 1029 30.39 858 25.34 1.9 35.4 61 -4.9 23.2
05:20 1029 30.39 858 25.34 1.5 34.6 63 -4.8 23.4
05:25 1029 30.39 858 25.34 1.3 34.3 63 -4.9 23.1
05:30 1029 30.39 859 25.37 1.4 34.5 62 -5 22.9
05:35 1029 30.39 859 25.37 1.5 34.8 60 -5.3 22.5
05:40 1029 30.39 859 25.37 1.6 34.9 60 -5.3 22.4
05:45 1029 30.39 859 25.37 1.8 35.2 63 -4.5 24
05:50 1029 30.39 859 25.37 1.4 34.6 66 -4.2 24.5
05:55 1029 30.39 859 25.37 1.3 34.3 65 -4.5 23.8
06:00 1029 30.39 859 25.37 1.2 34.1 69 -3.9 25
06:05 1030 30.42 859 25.37 0.9 33.7 65 -4.9 23.2
06:10 1030 30.42 859 25.37 1.2 34.1 65 -4.7 23.6
06:15 1029 30.39 859 25.37 1.2 34.2 64 -4.9 23.3
06:20 1029 30.39 859 25.37 1.4 34.5 61 -5.3 22.5
06:25 1029 30.39 859 25.37 1.6 35 58 -5.8 21.6
06:30 1029 30.39 859 25.37 2.1 35.8 50 -7.3 18.9
06:35 1029 30.39 859 25.37 2.6 36.7 54 -5.9 21.4
06:40 1029 30.39 859 25.37 2.8 37.1 51 -6.3 20.7
06:45 1030 30.42 859 25.37 2.9 37.2 52 -6.1 21
06:50 1030 30.42 859 25.37 3 37.4 52 -6 21.3
06:55 1030 30.42 859 25.37 3.3 37.9 55 -4.9 23.1
07:00 1030 30.42 859 25.37 3.3 37.9 48 -6.8 19.8
07:05 1030 30.42 859 25.37 3.4 38.2 47 -6.8 19.8
07:10 1029 30.39 859 25.37 3.6 38.4 56 -4.3 24.2
07:15 1029 30.39 859 25.37 3.3 38 56 -4.7 23.6
07:20 1029 30.39 859 25.37 2.8 37.1 59 -4.4 24.1
07:25 1029 30.39 859 25.37 2.6 36.6 62 -4 24.7
07:30 1029 30.39 859 25.37 2.5 36.5 58 -5 23
07:35 1030 30.42 859 25.37 2.5 36.6 56 -5.4 22.4
07:40 1030 30.42 859 25.37 2.5 36.5 60 -4.6 23.7
07:45 1030 30.42 859 25.37 2.3 36.2 67 -3.2 26.2
07:50 1029 30.39 859 25.37 2.2 35.9 67 -3.4 25.9
07:55 1030 30.42 859 25.37 2.3 36.2 66 -3.4 25.9
08:00 1030 30.42 859 25.37 2.4 36.2 67 -3.2 26.2
08:05 1030 30.42 859 25.37 2.1 35.8 65 -3.9 25
08:10 1030 30.42 859 25.37 2.3 36.2 61 -4.5 24
08:15 1030 30.42 859 25.37 2.4 36.4 61 -4.4 24.1
08:20 1029 30.39 859 25.37 2.7 36.8 61 -4.2 24.4
08:25 1030 30.42 859 25.37 2.7 36.9 63 -3.7 25.3
08:30 1030 30.42 859 25.37 2.7 36.9 63 -3.6 25.6
08:35 1030 30.42 859 25.37 2.9 37.2 60 -4.1 24.6
08:40 1030 30.42 859 25.37 3.2 37.8 57 -4.4 24.1
08:45 1030 30.42 859 25.37 3.6 38.6 55 -4.5 23.9
08:50 1030 30.42 859 25.37 3.7 38.6 55 -4.6 23.8
08:55 1030 30.42 860 25.4 3.6 38.6 56 -4.4 24
09:00 1030 30.42 860 25.4 3.8 38.9 55 -4.3 24.3
09:05 1030 30.42 860 25.4 3.9 39.1 56 -4.2 24.5
09:10 1030 30.42 860 25.4 4.1 39.3 55 -4.2 24.5
09:15 1031 30.45 860 25.4 4 39.2 55 -4.2 24.4
09:20 1031 30.45 860 25.4 4 39.1 57 -3.7 25.3
09:25 1031 30.45 860 25.4 4.1 39.4 52 -5 23
09:30 1031 30.45 860 25.4 4.3 39.7 50 -5.2 22.6
09:35 1031 30.45 860 25.4 4.3 39.8 60 -2.8 27
09:40 1031 30.45 860 25.4 4 39.2 63 -2.5 27.6
09:45 1031 30.45 860 25.4 4 39.2 61 -2.8 27
09:50 1030 30.42 860 25.4 4.1 39.4 59 -3.1 26.4
09:55 1030 30.42 860 25.4 4 39.2 60 -3 26.6
10:00 1030 30.42 859 25.37 3.9 39.1 59 -3.4 25.9
10:05 1030 30.42 859 25.37 4.1 39.4 53 -4.5 23.9
10:10 1030 30.42 859 25.37 4.4 39.9 54 -4.1 24.7
10:15 1030 30.42 859 25.37 4.6 40.3 51 -4.6 23.8
10:20 1030 30.42 859 25.37 4.8 40.7 48 -5.3 22.5
10:25 1030 30.42 859 25.37 5.1 41.1 47 -5.2 22.6
10:30 1030 30.42 859 25.37 5.3 41.5 47 -5 23
10:35 1030 30.42 859 25.37 5.7 42.3 47 -4.7 23.6
10:40 1030 30.42 859 25.37 5.9 42.6 47 -4.5 23.8
10:45 1030 30.42 859 25.37 6.3 43.3 47 -4.3 24.3
10:50 1030 30.42 859 25.37 6.5 43.7 47 -4.1 24.6
10:55 1030 30.42 859 25.37 6.5 43.7 46 -4.2 24.4
11:00 1030 30.42 859 25.37 6.5 43.7 45 -4.6 23.7
11:05 1030 30.42 859 25.37 6.7 44 44 -4.8 23.3
11:10 1030 30.42 859 25.37 6.7 44.1 45 -4.3 24.3
11:15 1030 30.42 859 25.37 6.8 44.2 45 -4.4 24
11:20 1030 30.42 859 25.37 6.9 44.4 44 -4.4 24
11:25 1030 30.42 859 25.37 6.9 44.4 44 -4.4 24
11:30 1030 30.42 860 25.4 6.9 44.4 45 -4.3 24.3
11:35 1030 30.42 860 25.4 6.7 44.1 46 -4 24.8
11:40 1030 30.42 860 25.4 6.8 44.2 46 -3.9 25
11:45 1030 30.42 860 25.4 7 44.5 46 -4 24.8
11:50 1030 30.42 859 25.37 7.1 44.8 47 -3.6 25.5
11:55 1030 30.42 859 25.37 6.7 44 48 -3.6 25.5
12:00 1030 30.42 859 25.37 6.5 43.7 49 -3.5 25.7
12:05 1030 30.42 859 25.37 6.5 43.7 49 -3.4 25.9
12:10 1030 30.42 859 25.37 6.6 43.9 48 -3.5 25.7
12:15 1030 30.42 859 25.37 6.7 44.1 49 -3.3 26.1
12:20 1030 30.42 859 25.37 6.8 44.3 48 -3.3 26
12:25 1030 30.42 860 25.4 6.9 44.3 47 -3.7 25.3
12:30 1030 30.42 859 25.37 7 44.5 47 -3.6 25.5
12:35 1030 30.42 859 25.37 7 44.7 47 -3.5 25.7
12:40 1030 30.42 859 25.37 7.3 45.1 46 -3.6 25.5
12:45 1030 30.42 859 25.37 7.4 45.3 45 -3.7 25.4
12:50 1030 30.42 859 25.37 7.3 45.1 46 -3.6 25.5
12:55 1030 30.42 859 25.37 7.4 45.3 46 -3.5 25.7
13:00 1030 30.42 859 25.37 7.7 45.9 45 -3.4 25.8
13:05 1030 30.42 859 25.37 8 46.4 44 -3.5 25.8
13:10 1030 30.42 859 25.37 8 46.4 45 -3.1 26.4
13:15 1030 30.42 859 25.37 7.9 46.3 46 -3 26.6
13:20 1030 30.42 859 25.37 7.9 46.2 46 -3 26.7
13:25 1030 30.42 859 25.37 8.2 46.7 45 -3 26.6
13:30 1030 30.42 859 25.37 8 46.3 47 -2.5 27.5
13:35 1030 30.42 859 25.37 7.9 46.3 47 -2.6 27.3
13:40 1030 30.42 859 25.37 8.3 46.9 46 -2.6 27.3
13:45 1030 30.42 859 25.37 8.5 47.4 46 -2.4 27.7
13:50 1030 30.42 859 25.37 8.5 47.3 46 -2.4 27.6
13:55 1030 30.42 859 25.37 8.7 47.7 45 -2.5 27.5
14:00 1030 30.42 859 25.37 9.3 48.7 44 -2.4 27.7
14:05 1030 30.42 859 25.37 9.4 48.9 44 -2.3 27.9
14:10 1030 30.42 859 25.37 9.6 49.3 44 -2.2 28.1
14:15 1030 30.42 859 25.37 9.7 49.4 43 -2.2 28
14:20 1030 30.42 859 25.37 9.7 49.4 43 -2.4 27.7
14:25 1029 30.39 859 25.37 9.7 49.4 44 -2.1 28.3
14:30 1029 30.39 859 25.37 9.6 49.3 45 -1.6 29.1
14:35 1029 30.39 859 25.37 9.6 49.3 45 -1.7 28.9
14:40 1029 30.39 859 25.37 9.7 49.5 45 -1.6 29.1
14:45 1029 30.39 859 25.37 9.9 49.8 45 -1.4 29.6
14:50 1029 30.39 859 25.37 9.9 49.7 46 -1.3 29.7
14:55 1029 30.39 859 25.37 10 49.9 45 -1.3 29.7
15:00 1030 30.42 859 25.37 9.9 49.8 46 -1.2 29.9
15:05 1030 30.42 859 25.37 9.8 49.7 47 -0.9 30.3
15:10 1029 30.39 859 25.37 9.5 49.2 47 -1.1 30
15:15 1029 30.39 859 25.37 9.5 49.1 47 -1.1 30.1
15:20 1029 30.39 859 25.37 9.7 49.4 47 -1.2 29.8
15:25 1029 30.39 859 25.37 9.7 49.5 47 -0.9 30.3
15:30 1029 30.39 859 25.37 10.3 50.5 44 -1.3 29.6
15:35 1029 30.39 859 25.37 10.8 51.4 43 -1.2 29.9
15:40 1029 30.39 859 25.37 11.2 52.1 43 -0.8 30.6
15:45 1029 30.39 859 25.37 11 51.9 43 -1 30.3
15:50 1029 30.39 859 25.37 11.3 52.4 42 -0.9 30.3
15:55 1029 30.39 859 25.37 10.9 51.5 44 -0.9 30.4
16:00 1029 30.39 859 25.37 10.6 51.1 44 -1.2 29.9
16:05 1029 30.39 859 25.37 10.9 51.5 43 -1.1 30.1
16:10 1029 30.39 858 25.34 10.8 51.5 44 -1 30.2
16:15 1029 30.39 858 25.34 10.9 51.5 43 -1 30.1
16:20 1029 30.39 858 25.34 10.9 51.5 44 -0.9 30.4
16:25 1029 30.39 858 25.34 10.8 51.5 45 -0.7 30.8
16:30 1029 30.39 858 25.34 10.7 51.3 44 -0.9 30.4
16:35 1029 30.39 858 25.34 10.8 51.4 45 -0.7 30.7
16:40 1029 30.39 858 25.34 10.8 51.5 45 -0.6 31
16:45 1029 30.39 858 25.34 11 51.7 45 -0.4 31.2
16:50 1029 30.39 858 25.34 10.9 51.6 45 -0.5 31.1
16:55 1029 30.39 858 25.34 11.1 51.9 45 -0.3 31.4
17:00 1029 30.39 858 25.34 11.2 52.1 45 -0.4 31.3
17:05 1029 30.39 858 25.34 11.3 52.4 44 -0.3 31.4
17:10 1029 30.39 858 25.34 11.3 52.3 45 -0.1 31.8
17:15 1029 30.39 858 25.34 11.2 52.2 45 -0.3 31.5
17:20 1029 30.39 858 25.34 11.2 52.2 45 -0.2 31.6
17:25 1029 30.39 858 25.34 11.2 52.1 45 -0.2 31.6
17:30 1029 30.39 858 25.34 11.2 52.1 45 -0.2 31.6
17:35 1029 30.39 858 25.34 11.1 52 46 -0.1 31.9
17:40 1029 30.39 858 25.34 11 51.9 46 0 32.1
17:45 1029 30.39 858 25.34 11.1 52 46 0.1 32.2
17:50 1029 30.39 858 25.34 11.1 51.9 47 0.1 32.3
17:55 1029 30.39 858 25.34 10.9 51.7 48 0.3 32.6
18:00 1029 30.39 858 25.34 10.9 51.6 48 0.3 32.5
18:05 1029 30.39 858 25.34 11 51.7 48 0.5 32.9
18:10 1029 30.39 858 25.34 11 51.8 50 1 33.8
18:15 1029 30.39 858 25.34 11 51.7 50 1.1 33.9
18:20 1029 30.39 858 25.34 11 51.7 52 1.5 34.8
18:25 1029 30.39 858 25.34 10.8 51.4 52 1.4 34.5
18:30 1029 30.39 858 25.34 10.5 51 53 1.5 34.7
18:35 1029 30.39 858 25.34 10.2 50.4 53 1.1 34
18:40 1029 30.39 858 25.34 10.1 50.2 54 1.2 34.2
18:45 1029 30.39 858 25.34 10.2 50.4 54 1.4 34.5
18:50 1029 30.39 858 25.34 10.4 50.7 55 1.8 35.3
18:55 1029 30.39 858 25.34 11.1 52 52 1.7 35.1
19:00 1029 30.39 858 25.34 11.5 52.7 52 2 35.5
19:05 1029 30.39 858 25.34 11.5 52.7 52 2.1 35.8
19:10 1029 30.39 858 25.34 11.3 52.4 52 2 35.6
19:15 1029 30.39 858 25.34 11.2 52.2 53 2.1 35.8
19:20 1029 30.39 858 25.34 11.1 51.9 54 2.2 35.9
19:25 1029 30.39 858 25.34 11 51.7 54 2 35.7
19:30 1029 30.39 858 25.34 11 51.8 54 2.1 35.8
19:35 1029 30.39 858 25.34 11.1 52 54 2.3 36.1
19:40 1029 30.39 858 25.34 11.1 52 54 2.3 36.1
19:45 1029 30.39 858 25.34 11.5 52.6 52 2 35.7
19:50 1029 30.39 858 25.34 11.8 53.2 52 2.3 36.2
19:55 1029 30.39 858 25.34 11.7 53.1 53 2.5 36.5
20:00 1029 30.39 858 25.34 11.7 53 52 2.2 35.9
20:05 1029 30.39 858 25.34 11.8 53.2 51 2.1 35.8
20:10 1029 30.39 858 25.34 11.8 53.2 52 2.2 36
20:15 1029 30.39 858 25.34 11.5 52.8 53 2.2 36
20:20 1029 30.39 858 25.34 11.5 52.7 53 2.3 36.1
20:25 1029 30.39 858 25.34 11.3 52.3 54 2.3 36.2
20:30 1029 30.39 858 25.34 11.1 51.9 55 2.4 36.3
20:35 1029 30.39 858 25.34 11 51.9 54 2.2 36
20:40 1029 30.39 858 25.34 11.1 52 55 2.4 36.4
20:45 1029 30.39 858 25.34 11.2 52.1 55 2.5 36.4
20:50 1029 30.39 858 25.34 11.3 52.4 53 2.2 36
20:55 1029 30.39 858 25.34 11.6 52.8 53 2.5 36.4
21:00 1029 30.39 858 25.34 11.4 52.5 55 2.7 36.8
21:05 1029 30.39 859 25.37 11.1 52.1 55 2.5 36.5
21:10 1029 30.39 859 25.37 11.2 52.1 54 2.3 36.2
21:15 1029 30.39 858 25.34 11.4 52.4 53 2.3 36.1
21:20 1029 30.39 858 25.34 11.3 52.4 54 2.5 36.5
21:25 1029 30.39 858 25.34 11.3 52.3 54 2.2 36
21:30 1029 30.39 858 25.34 11.5 52.6 53 2.3 36.1
21:35 1029 30.39 858 25.34 11.4 52.5 54 2.5 36.5
21:40 1029 30.39 858 25.34 11.1 51.9 55 2.5 36.5
21:45 1029 30.39 858 25.34 10.8 51.4 56 2.3 36.2
21:50 1029 30.39 858 25.34 10.5 50.9 57 2.4 36.3
21:55 1029 30.39 858 25.34 10.2 50.4 58 2.4 36.2
22:00 1029 30.39 858 25.34 9.9 49.9 59 2.2 36
22:05 1029 30.39 858 25.34 9.9 49.9 58 2.1 35.8
22:10 1029 30.39 858 25.34 10 49.9 58 2.2 36
22:15 1029 30.39 858 25.34 10 50 58 2.2 35.9
22:20 1029 30.39 858 25.34 9.9 49.9 58 2.2 35.9
22:25 1029 30.39 858 25.34 10.1 50.1 57 2 35.6
22:30 1029 30.39 858 25.34 10.4 50.7 56 2.1 35.8
22:35 1029 30.39 858 25.34 10.5 50.8 56 2.2 35.9
22:40 1029 30.39 858 25.34 10.5 50.9 56 2.2 36
22:45 1029 30.39 859 25.37 10.6 51.1 56 2.2 36
22:50 1029 30.39 859 25.37 10.7 51.2 56 2.2 36
22:55 1030 30.42 859 25.37 10.6 51 56 2.1 35.8
23:00 1030 30.42 859 25.37 10.5 50.8 56 2.2 36
23:05 1030 30.42 859 25.37 10.3 50.5 57 2.3 36.1
23:10 1030 30.42 859 25.37 10 50 58 2.2 36
23:15 1030 30.42 859 25.37 9.9 49.9 58 2.1 35.7
23:20 1030 30.42 859 25.37 9.9 49.8 59 2.2 36
23:25 1030 30.42 859 25.37 9.8 49.6 60 2.3 36.2
23:30 1030 30.42 859 25.37 9.5 49.2 61 2.3 36.2
23:35 1030 30.42 859 25.37 9.5 49.2 60 2.2 35.9
23:40 1030 30.42 859 25.37 9.7 49.4 60 2.3 36.1
23:45 1030 30.42 859 25.37 9.8 49.6 59 2.2 35.9
23:50 1030 30.42 859 25.37 9.9 49.8 59 2.2 36
23:55 1030 30.42 859 25.37 9.8 49.7 59 2.3 36.2
24:00 1030 30.42 859 25.37 9.8 49.6 60 2.4 36.3